Pagrindinis puslapis
METAR-TAF:

METAR-TAF

Oro uostai :

Rabato oro uostas

Rabatas, Marokas

platuma: 34-03N, ilguma: 006-46W, Aukštis: 84 m

Dabartinis oras

Ataskaita buvo paskelbta 16 minutes, ne 05:00 UTC
Vėjas 5 kt iš Rytų/Pietryčių
Temperatūra 10°C
Drėgmė 100%
Slėgis 1027 hPa
Matomumas: 2200 m

METAR: GMME 100500Z 11005KT 2200 10/10 Q1027

Laikas: 06:16 (05:16 UTC)

Prognozė

Ataskaita buvo paskelbta 6 valandos ir 16 minutes, ne 23:00 UTC
Prognozė galioja nuo 10 metu 00 UTC su 11 metu 06 UTC
Vėjas 2 kt nuo kintamojo kryptimis
Matomumas: 8000 m
Išsisklaidę debesys ne aukštis 1300 ft
Su prošvaistėmis ne aukštis 2000 ft
Laikinai
nuo 10 metu 04 UTC su 10 metu 10 UTC
Matomumas: 3000 m
Su prošvaistėmis ne aukštis 800 ft
rūkana

TAF: GMME 092300Z 1000/1106 VRB02KT 8000 SCT013 BKN020 TEMPO 1004/1010 3000 BR BKN008

Orai ataskaitas ir orų prognozės (METAR, TAF).

turimą stotys yra geltonos ir raudonos taškus žemėlapyje.

Perkelti pele per norėdami pamatyti stoties vardą.

Tada spustelėkite, norėdami matyti oro stebėjimo ir prognozės.

Norėdami pakeisti žemėlapį: spustelėkite ant žalios mygtukų su juodo kryžiaus žemyn,; žalią mygtuką su brūkšneliu, jei norite nutolinti; arba žalių rodyklių gretimoms žemėlapius.


METAR-TAF: